sensor_id;sensor_type;location;lat;lon;timestamp;P1;durP1;ratioP1;P2;durP2;ratioP2
6551;SDS011;3309;48.708;9.290;2022-07-03T00:01:23;0.30;;;0.30;;
6551;SDS011;3309;48.708;9.290;2022-07-03T00:03:49;0.30;;;0.30;;
6551;SDS011;3309;48.708;9.290;2022-07-03T00:06:14;0.30;;;0.30;;
6551;SDS011;3309;48.708;9.290;2022-07-03T00:08:40;0.47;;;0.47;;
6551;SDS011;3309;48.708;9.290;2022-07-03T00:11:06;0.30;;;0.30;;
6551;SDS011;3309;48.708;9.290;2022-07-03T00:13:32;0.30;;;0.30;;
6551;SDS011;3309;48.708;9.290;2022-07-03T00:15:57;0.30;;;0.30;;
6551;SDS011;3309;48.708;9.290;2022-07-03T00:18:23;0.30;;;0.30;;
6551;SDS011;3309;48.708;9.290;2022-07-03T00:20:49;0.30;;;0.30;;
6551;SDS011;3309;48.708;9.290;2022-07-03T00:23:20;0.37;;;0.37;;
6551;SDS011;3309;48.708;9.290;2022-07-03T00:25:47;0.40;;;0.40;;
6551;SDS011;3309;48.708;9.290;2022-07-03T00:28:14;0.30;;;0.30;;
6551;SDS011;3309;48.708;9.290;2022-07-03T00:30:40;0.40;;;0.40;;
6551;SDS011;3309;48.708;9.290;2022-07-03T00:33:10;0.50;;;0.50;;
6551;SDS011;3309;48.708;9.290;2022-07-03T00:35:36;0.40;;;0.40;;
6551;SDS011;3309;48.708;9.290;2022-07-03T00:38:04;0.30;;;0.30;;
6551;SDS011;3309;48.708;9.290;2022-07-03T00:40:29;0.30;;;0.30;;
6551;SDS011;3309;48.708;9.290;2022-07-03T00:42:55;0.33;;;0.33;;
6551;SDS011;3309;48.708;9.290;2022-07-03T00:45:24;0.30;;;0.30;;
6551;SDS011;3309;48.708;9.290;2022-07-03T00:47:51;0.40;;;0.40;;
6551;SDS011;3309;48.708;9.290;2022-07-03T00:50:18;0.30;;;0.30;;
6551;SDS011;3309;48.708;9.290;2022-07-03T00:52:50;0.30;;;0.30;;
6551;SDS011;3309;48.708;9.290;2022-07-03T00:55:19;0.33;;;0.33;;
6551;SDS011;3309;48.708;9.290;2022-07-03T00:57:51;0.40;;;0.40;;
6551;SDS011;3309;48.708;9.290;2022-07-03T01:00:19;0.30;;;0.30;;
6551;SDS011;3309;48.708;9.290;2022-07-03T01:02:49;0.40;;;0.40;;
6551;SDS011;3309;48.708;9.290;2022-07-03T01:05:54;0.40;;;0.40;;
6551;SDS011;3309;48.708;9.290;2022-07-03T01:16:30;0.40;;;0.40;;
6551;SDS011;3309;48.708;9.290;2022-07-03T01:19:09;0.40;;;0.40;;
6551;SDS011;3309;48.708;9.290;2022-07-03T01:26:57;0.40;;;0.40;;
6551;SDS011;3309;48.708;9.290;2022-07-03T01:29:35;0.40;;;0.40;;
6551;SDS011;3309;48.708;9.290;2022-07-03T01:32:11;0.40;;;0.40;;
6551;SDS011;3309;48.708;9.290;2022-07-03T01:34:39;0.50;;;0.50;;
6551;SDS011;3309;48.708;9.290;2022-07-03T01:37:09;0.30;;;0.30;;
6551;SDS011;3309;48.708;9.290;2022-07-03T01:39:40;0.40;;;0.40;;
6551;SDS011;3309;48.708;9.290;2022-07-03T01:42:09;0.40;;;0.40;;
6551;SDS011;3309;48.708;9.290;2022-07-03T01:44:37;0.40;;;0.40;;
6551;SDS011;3309;48.708;9.290;2022-07-03T01:47:04;0.50;;;0.50;;
6551;SDS011;3309;48.708;9.290;2022-07-03T01:49:30;0.50;;;0.50;;
6551;SDS011;3309;48.708;9.290;2022-07-03T01:51:57;0.30;;;0.30;;
6551;SDS011;3309;48.708;9.290;2022-07-03T01:54:24;0.40;;;0.40;;
6551;SDS011;3309;48.708;9.290;2022-07-03T01:56:51;0.40;;;0.40;;
6551;SDS011;3309;48.708;9.290;2022-07-03T01:59:18;0.30;;;0.30;;
6551;SDS011;3309;48.708;9.290;2022-07-03T02:04:49;0.40;;;0.40;;
6551;SDS011;3309;48.708;9.290;2022-07-03T02:07:29;0.40;;;0.40;;
6551;SDS011;3309;48.708;9.290;2022-07-03T02:10:06;0.40;;;0.40;;
6551;SDS011;3309;48.708;9.290;2022-07-03T02:12:38;0.37;;;0.37;;
6551;SDS011;3309;48.708;9.290;2022-07-03T02:15:06;0.40;;;0.40;;
6551;SDS011;3309;48.708;9.290;2022-07-03T02:17:42;0.40;;;0.40;;
6551;SDS011;3309;48.708;9.290;2022-07-03T02:20:13;0.40;;;0.40;;
6551;SDS011;3309;48.708;9.290;2022-07-03T02:22:42;0.37;;;0.37;;
6551;SDS011;3309;48.708;9.290;2022-07-03T02:25:24;0.40;;;0.40;;
6551;SDS011;3309;48.708;9.290;2022-07-03T02:30:29;0.30;;;0.30;;
6551;SDS011;3309;48.708;9.290;2022-07-03T02:32:55;0.30;;;0.30;;
6551;SDS011;3309;48.708;9.290;2022-07-03T02:35:30;0.30;;;0.30;;
6551;SDS011;3309;48.708;9.290;2022-07-03T02:40:34;0.40;;;0.40;;
6551;SDS011;3309;48.708;9.290;2022-07-03T02:45:40;0.40;;;0.40;;
6551;SDS011;3309;48.708;9.290;2022-07-03T02:48:16;0.30;;;0.30;;
6551;SDS011;3309;48.708;9.290;2022-07-03T02:50:49;0.40;;;0.40;;
6551;SDS011;3309;48.708;9.290;2022-07-03T02:53:20;0.40;;;0.40;;
6551;SDS011;3309;48.708;9.290;2022-07-03T02:55:51;0.30;;;0.30;;
6551;SDS011;3309;48.708;9.290;2022-07-03T03:01:47;0.37;;;0.37;;
6551;SDS011;3309;48.708;9.290;2022-07-03T03:04:30;0.30;;;0.30;;
6551;SDS011;3309;48.708;9.290;2022-07-03T03:07:01;0.40;;;0.40;;
6551;SDS011;3309;48.708;9.290;2022-07-03T03:09:42;0.40;;;0.40;;
6551;SDS011;3309;48.708;9.290;2022-07-03T03:12:11;0.40;;;0.40;;
6551;SDS011;3309;48.708;9.290;2022-07-03T03:14:38;0.40;;;0.40;;
6551;SDS011;3309;48.708;9.290;2022-07-03T03:17:05;0.47;;;0.47;;
6551;SDS011;3309;48.708;9.290;2022-07-03T03:19:34;0.40;;;0.40;;
6551;SDS011;3309;48.708;9.290;2022-07-03T03:24:48;0.30;;;0.30;;
6551;SDS011;3309;48.708;9.290;2022-07-03T03:27:14;0.40;;;0.40;;
6551;SDS011;3309;48.708;9.290;2022-07-03T03:29:40;0.40;;;0.40;;
6551;SDS011;3309;48.708;9.290;2022-07-03T03:32:06;0.40;;;0.40;;
6551;SDS011;3309;48.708;9.290;2022-07-03T03:34:32;0.40;;;0.40;;
6551;SDS011;3309;48.708;9.290;2022-07-03T03:36:58;0.40;;;0.40;;
6551;SDS011;3309;48.708;9.290;2022-07-03T03:39:24;0.40;;;0.40;;
6551;SDS011;3309;48.708;9.290;2022-07-03T03:41:50;0.33;;;0.33;;
6551;SDS011;3309;48.708;9.290;2022-07-03T03:44:17;0.40;;;0.40;;
6551;SDS011;3309;48.708;9.290;2022-07-03T03:46:42;0.40;;;0.40;;
6551;SDS011;3309;48.708;9.290;2022-07-03T03:49:08;0.40;;;0.40;;
6551;SDS011;3309;48.708;9.290;2022-07-03T03:51:33;0.30;;;0.30;;
6551;SDS011;3309;48.708;9.290;2022-07-03T03:53:59;0.40;;;0.40;;
6551;SDS011;3309;48.708;9.290;2022-07-03T03:56:25;0.50;;;0.50;;
6551;SDS011;3309;48.708;9.290;2022-07-03T03:58:51;0.40;;;0.40;;
6551;SDS011;3309;48.708;9.290;2022-07-03T04:01:16;0.40;;;0.40;;
6551;SDS011;3309;48.708;9.290;2022-07-03T04:03:42;0.40;;;0.40;;
6551;SDS011;3309;48.708;9.290;2022-07-03T04:06:07;0.40;;;0.40;;
6551;SDS011;3309;48.708;9.290;2022-07-03T04:08:33;0.50;;;0.50;;
6551;SDS011;3309;48.708;9.290;2022-07-03T04:10:59;0.40;;;0.40;;
6551;SDS011;3309;48.708;9.290;2022-07-03T04:13:25;0.40;;;0.40;;
6551;SDS011;3309;48.708;9.290;2022-07-03T04:15:51;0.40;;;0.40;;
6551;SDS011;3309;48.708;9.290;2022-07-03T04:18:17;0.40;;;0.40;;
6551;SDS011;3309;48.708;9.290;2022-07-03T04:20:43;0.50;;;0.50;;
6551;SDS011;3309;48.708;9.290;2022-07-03T04:23:09;0.40;;;0.40;;
6551;SDS011;3309;48.708;9.290;2022-07-03T04:25:35;0.40;;;0.40;;
6551;SDS011;3309;48.708;9.290;2022-07-03T04:28:00;0.40;;;0.40;;
6551;SDS011;3309;48.708;9.290;2022-07-03T04:30:26;0.40;;;0.40;;
6551;SDS011;3309;48.708;9.290;2022-07-03T04:32:52;0.40;;;0.40;;
6551;SDS011;3309;48.708;9.290;2022-07-03T04:35:18;0.30;;;0.30;;
6551;SDS011;3309;48.708;9.290;2022-07-03T04:37:43;0.37;;;0.37;;
6551;SDS011;3309;48.708;9.290;2022-07-03T04:40:09;0.40;;;0.40;;
6551;SDS011;3309;48.708;9.290;2022-07-03T04:42:36;0.30;;;0.30;;
6551;SDS011;3309;48.708;9.290;2022-07-03T04:45:02;0.30;;;0.30;;
6551;SDS011;3309;48.708;9.290;2022-07-03T04:47:28;0.40;;;0.40;;
6551;SDS011;3309;48.708;9.290;2022-07-03T04:49:54;0.33;;;0.33;;
6551;SDS011;3309;48.708;9.290;2022-07-03T04:52:19;0.30;;;0.30;;
6551;SDS011;3309;48.708;9.290;2022-07-03T04:54:45;0.40;;;0.40;;
6551;SDS011;3309;48.708;9.290;2022-07-03T04:57:10;0.40;;;0.40;;
6551;SDS011;3309;48.708;9.290;2022-07-03T04:59:36;0.40;;;0.40;;
6551;SDS011;3309;48.708;9.290;2022-07-03T05:02:02;0.30;;;0.30;;
6551;SDS011;3309;48.708;9.290;2022-07-03T05:04:27;0.30;;;0.30;;
6551;SDS011;3309;48.708;9.290;2022-07-03T05:06:53;0.40;;;0.40;;
6551;SDS011;3309;48.708;9.290;2022-07-03T05:09:18;0.37;;;0.37;;
6551;SDS011;3309;48.708;9.290;2022-07-03T05:11:45;0.40;;;0.40;;
6551;SDS011;3309;48.708;9.290;2022-07-03T05:14:10;0.40;;;0.40;;
6551;SDS011;3309;48.708;9.290;2022-07-03T05:16:36;0.40;;;0.40;;
6551;SDS011;3309;48.708;9.290;2022-07-03T05:19:02;0.30;;;0.30;;
6551;SDS011;3309;48.708;9.290;2022-07-03T05:21:27;0.30;;;0.30;;
6551;SDS011;3309;48.708;9.290;2022-07-03T05:23:53;0.30;;;0.30;;
6551;SDS011;3309;48.708;9.290;2022-07-03T05:26:19;0.33;;;0.33;;
6551;SDS011;3309;48.708;9.290;2022-07-03T05:28:44;0.30;;;0.30;;
6551;SDS011;3309;48.708;9.290;2022-07-03T05:31:10;0.40;;;0.40;;
6551;SDS011;3309;48.708;9.290;2022-07-03T05:33:36;0.30;;;0.30;;
6551;SDS011;3309;48.708;9.290;2022-07-03T05:36:02;0.47;;;0.47;;
6551;SDS011;3309;48.708;9.290;2022-07-03T05:38:28;0.30;;;0.30;;
6551;SDS011;3309;48.708;9.290;2022-07-03T05:41:12;0.30;;;0.30;;
6551;SDS011;3309;48.708;9.290;2022-07-03T05:43:38;0.30;;;0.30;;
6551;SDS011;3309;48.708;9.290;2022-07-03T05:46:03;0.40;;;0.40;;
6551;SDS011;3309;48.708;9.290;2022-07-03T05:48:29;0.40;;;0.40;;
6551;SDS011;3309;48.708;9.290;2022-07-03T05:50:54;0.30;;;0.30;;
6551;SDS011;3309;48.708;9.290;2022-07-03T05:53:20;0.33;;;0.33;;
6551;SDS011;3309;48.708;9.290;2022-07-03T05:55:46;0.40;;;0.40;;
6551;SDS011;3309;48.708;9.290;2022-07-03T05:58:12;0.30;;;0.30;;
6551;SDS011;3309;48.708;9.290;2022-07-03T06:00:37;0.40;;;0.40;;
6551;SDS011;3309;48.708;9.290;2022-07-03T06:03:03;0.40;;;0.40;;
6551;SDS011;3309;48.708;9.290;2022-07-03T06:05:29;0.40;;;0.40;;
6551;SDS011;3309;48.708;9.290;2022-07-03T06:07:54;0.30;;;0.30;;
6551;SDS011;3309;48.708;9.290;2022-07-03T06:10:20;0.40;;;0.40;;
6551;SDS011;3309;48.708;9.290;2022-07-03T06:12:46;0.30;;;0.30;;
6551;SDS011;3309;48.708;9.290;2022-07-03T06:15:11;0.40;;;0.40;;
6551;SDS011;3309;48.708;9.290;2022-07-03T06:17:37;0.40;;;0.40;;
6551;SDS011;3309;48.708;9.290;2022-07-03T06:20:03;0.30;;;0.30;;
6551;SDS011;3309;48.708;9.290;2022-07-03T06:22:29;0.30;;;0.30;;
6551;SDS011;3309;48.708;9.290;2022-07-03T06:24:55;0.30;;;0.30;;
6551;SDS011;3309;48.708;9.290;2022-07-03T06:27:20;0.40;;;0.40;;
6551;SDS011;3309;48.708;9.290;2022-07-03T06:29:47;0.40;;;0.40;;
6551;SDS011;3309;48.708;9.290;2022-07-03T06:32:14;0.30;;;0.30;;
6551;SDS011;3309;48.708;9.290;2022-07-03T06:34:40;0.30;;;0.30;;
6551;SDS011;3309;48.708;9.290;2022-07-03T06:37:08;0.30;;;0.30;;
6551;SDS011;3309;48.708;9.290;2022-07-03T06:39:33;0.30;;;0.30;;
6551;SDS011;3309;48.708;9.290;2022-07-03T06:41:59;0.30;;;0.30;;
6551;SDS011;3309;48.708;9.290;2022-07-03T06:44:24;0.30;;;0.30;;
6551;SDS011;3309;48.708;9.290;2022-07-03T06:46:50;0.30;;;0.30;;
6551;SDS011;3309;48.708;9.290;2022-07-03T06:49:15;0.33;;;0.33;;
6551;SDS011;3309;48.708;9.290;2022-07-03T06:51:41;0.30;;;0.30;;
6551;SDS011;3309;48.708;9.290;2022-07-03T06:54:07;0.30;;;0.30;;
6551;SDS011;3309;48.708;9.290;2022-07-03T06:56:32;0.30;;;0.30;;
6551;SDS011;3309;48.708;9.290;2022-07-03T06:58:58;0.30;;;0.30;;
6551;SDS011;3309;48.708;9.290;2022-07-03T07:01:23;0.30;;;0.30;;
6551;SDS011;3309;48.708;9.290;2022-07-03T07:03:49;0.30;;;0.30;;
6551;SDS011;3309;48.708;9.290;2022-07-03T07:06:14;0.30;;;0.30;;
6551;SDS011;3309;48.708;9.290;2022-07-03T07:08:40;0.30;;;0.30;;
6551;SDS011;3309;48.708;9.290;2022-07-03T07:11:05;0.30;;;0.30;;
6551;SDS011;3309;48.708;9.290;2022-07-03T07:13:31;0.23;;;0.23;;
6551;SDS011;3309;48.708;9.290;2022-07-03T07:15:56;0.30;;;0.30;;
6551;SDS011;3309;48.708;9.290;2022-07-03T07:18:22;0.30;;;0.30;;
6551;SDS011;3309;48.708;9.290;2022-07-03T07:20:47;0.30;;;0.30;;
6551;SDS011;3309;48.708;9.290;2022-07-03T07:23:13;0.30;;;0.30;;
6551;SDS011;3309;48.708;9.290;2022-07-03T07:25:38;0.40;;;0.40;;
6551;SDS011;3309;48.708;9.290;2022-07-03T07:28:04;0.30;;;0.30;;
6551;SDS011;3309;48.708;9.290;2022-07-03T07:30:29;0.27;;;0.27;;
6551;SDS011;3309;48.708;9.290;2022-07-03T07:32:55;0.30;;;0.30;;
6551;SDS011;3309;48.708;9.290;2022-07-03T07:35:20;0.40;;;0.40;;
6551;SDS011;3309;48.708;9.290;2022-07-03T07:37:46;0.20;;;0.20;;
6551;SDS011;3309;48.708;9.290;2022-07-03T07:40:13;0.33;;;0.33;;
6551;SDS011;3309;48.708;9.290;2022-07-03T07:42:39;0.30;;;0.30;;
6551;SDS011;3309;48.708;9.290;2022-07-03T07:45:04;0.30;;;0.30;;
6551;SDS011;3309;48.708;9.290;2022-07-03T07:47:30;0.40;;;0.40;;
6551;SDS011;3309;48.708;9.290;2022-07-03T07:49:56;0.30;;;0.30;;
6551;SDS011;3309;48.708;9.290;2022-07-03T07:52:21;0.20;;;0.20;;
6551;SDS011;3309;48.708;9.290;2022-07-03T07:54:49;0.30;;;0.30;;
6551;SDS011;3309;48.708;9.290;2022-07-03T07:57:15;0.30;;;0.30;;
6551;SDS011;3309;48.708;9.290;2022-07-03T07:59:40;0.30;;;0.30;;
6551;SDS011;3309;48.708;9.290;2022-07-03T08:02:06;0.50;;;0.50;;
6551;SDS011;3309;48.708;9.290;2022-07-03T08:04:50;0.40;;;0.40;;
6551;SDS011;3309;48.708;9.290;2022-07-03T08:07:34;0.47;;;0.47;;
6551;SDS011;3309;48.708;9.290;2022-07-03T08:10:00;0.40;;;0.40;;
6551;SDS011;3309;48.708;9.290;2022-07-03T08:12:25;0.40;;;0.40;;
6551;SDS011;3309;48.708;9.290;2022-07-03T08:14:51;0.50;;;0.50;;
6551;SDS011;3309;48.708;9.290;2022-07-03T08:17:16;0.50;;;0.50;;
6551;SDS011;3309;48.708;9.290;2022-07-03T08:19:42;0.60;;;0.60;;
6551;SDS011;3309;48.708;9.290;2022-07-03T08:22:07;0.33;;;0.33;;
6551;SDS011;3309;48.708;9.290;2022-07-03T08:24:33;0.40;;;0.40;;
6551;SDS011;3309;48.708;9.290;2022-07-03T08:26:58;0.40;;;0.40;;
6551;SDS011;3309;48.708;9.290;2022-07-03T08:29:24;0.40;;;0.40;;
6551;SDS011;3309;48.708;9.290;2022-07-03T08:31:50;0.40;;;0.40;;
6551;SDS011;3309;48.708;9.290;2022-07-03T08:34:16;0.40;;;0.40;;
6551;SDS011;3309;48.708;9.290;2022-07-03T08:36:41;0.50;;;0.50;;
6551;SDS011;3309;48.708;9.290;2022-07-03T08:39:07;0.30;;;0.30;;
6551;SDS011;3309;48.708;9.290;2022-07-03T08:41:35;0.40;;;0.40;;
6551;SDS011;3309;48.708;9.290;2022-07-03T08:44:04;0.40;;;0.40;;
6551;SDS011;3309;48.708;9.290;2022-07-03T08:46:30;0.40;;;0.40;;
6551;SDS011;3309;48.708;9.290;2022-07-03T08:48:57;0.50;;;0.50;;
6551;SDS011;3309;48.708;9.290;2022-07-03T08:51:25;0.50;;;0.50;;
6551;SDS011;3309;48.708;9.290;2022-07-03T08:53:52;0.40;;;0.40;;
6551;SDS011;3309;48.708;9.290;2022-07-03T08:56:19;0.50;;;0.50;;
6551;SDS011;3309;48.708;9.290;2022-07-03T08:58:46;0.40;;;0.40;;
6551;SDS011;3309;48.708;9.290;2022-07-03T09:01:17;0.40;;;0.40;;
6551;SDS011;3309;48.708;9.290;2022-07-03T09:03:44;0.40;;;0.40;;
6551;SDS011;3309;48.708;9.290;2022-07-03T09:06:11;0.50;;;0.50;;
6551;SDS011;3309;48.708;9.290;2022-07-03T09:08:38;0.40;;;0.40;;
6551;SDS011;3309;48.708;9.290;2022-07-03T09:11:04;0.50;;;0.50;;
6551;SDS011;3309;48.708;9.290;2022-07-03T09:13:30;0.50;;;0.50;;
6551;SDS011;3309;48.708;9.290;2022-07-03T09:15:56;0.40;;;0.40;;
6551;SDS011;3309;48.708;9.290;2022-07-03T09:18:37;0.50;;;0.50;;
6551;SDS011;3309;48.708;9.290;2022-07-03T09:21:04;0.30;;;0.30;;
6551;SDS011;3309;48.708;9.290;2022-07-03T09:23:37;0.50;;;0.50;;
6551;SDS011;3309;48.708;9.290;2022-07-03T09:26:05;0.40;;;0.40;;
6551;SDS011;3309;48.708;9.290;2022-07-03T09:31:21;0.53;;;0.53;;
6551;SDS011;3309;48.708;9.290;2022-07-03T09:42:00;0.70;;;0.70;;
6551;SDS011;3309;48.708;9.290;2022-07-03T09:44:37;0.50;;;0.50;;
6551;SDS011;3309;48.708;9.290;2022-07-03T09:49:46;0.50;;;0.50;;
6551;SDS011;3309;48.708;9.290;2022-07-03T09:52:25;0.70;;;0.70;;
6551;SDS011;3309;48.708;9.290;2022-07-03T09:54:52;0.60;;;0.60;;
6551;SDS011;3309;48.708;9.290;2022-07-03T09:57:17;0.60;;;0.60;;
6551;SDS011;3309;48.708;9.290;2022-07-03T09:59:44;0.57;;;0.57;;
6551;SDS011;3309;48.708;9.290;2022-07-03T10:02:09;0.60;;;0.60;;
6551;SDS011;3309;48.708;9.290;2022-07-03T10:04:35;0.60;;;0.60;;
6551;SDS011;3309;48.708;9.290;2022-07-03T10:07:00;0.60;;;0.60;;
6551;SDS011;3309;48.708;9.290;2022-07-03T10:09:29;0.50;;;0.50;;
6551;SDS011;3309;48.708;9.290;2022-07-03T10:11:56;0.40;;;0.40;;
6551;SDS011;3309;48.708;9.290;2022-07-03T10:14:26;0.63;;;0.63;;
6551;SDS011;3309;48.708;9.290;2022-07-03T10:16:53;0.50;;;0.50;;
6551;SDS011;3309;48.708;9.290;2022-07-03T10:19:21;0.50;;;0.50;;
6551;SDS011;3309;48.708;9.290;2022-07-03T10:21:52;0.50;;;0.50;;
6551;SDS011;3309;48.708;9.290;2022-07-03T10:24:23;0.40;;;0.40;;
6551;SDS011;3309;48.708;9.290;2022-07-03T10:26:53;0.60;;;0.60;;
6551;SDS011;3309;48.708;9.290;2022-07-03T10:29:20;0.50;;;0.50;;
6551;SDS011;3309;48.708;9.290;2022-07-03T10:31:47;0.50;;;0.50;;
6551;SDS011;3309;48.708;9.290;2022-07-03T10:34:16;0.60;;;0.60;;
6551;SDS011;3309;48.708;9.290;2022-07-03T10:36:44;0.47;;;0.47;;
6551;SDS011;3309;48.708;9.290;2022-07-03T10:39:13;0.60;;;0.60;;
6551;SDS011;3309;48.708;9.290;2022-07-03T10:42:01;0.50;;;0.50;;
6551;SDS011;3309;48.708;9.290;2022-07-03T10:45:05;0.60;;;0.60;;
6551;SDS011;3309;48.708;9.290;2022-07-03T10:47:45;0.60;;;0.60;;
6551;SDS011;3309;48.708;9.290;2022-07-03T10:50:15;0.60;;;0.60;;
6551;SDS011;3309;48.708;9.290;2022-07-03T10:52:45;0.50;;;0.50;;
6551;SDS011;3309;48.708;9.290;2022-07-03T10:55:12;0.50;;;0.50;;
6551;SDS011;3309;48.708;9.290;2022-07-03T10:57:39;0.60;;;0.60;;
6551;SDS011;3309;48.708;9.290;2022-07-03T11:00:13;0.60;;;0.60;;
6551;SDS011;3309;48.708;9.290;2022-07-03T11:02:44;0.40;;;0.40;;
6551;SDS011;3309;48.708;9.290;2022-07-03T11:05:15;0.52;;;0.52;;
6551;SDS011;3309;48.708;9.290;2022-07-03T11:15:24;0.50;;;0.50;;
6551;SDS011;3309;48.708;9.290;2022-07-03T11:23:08;0.50;;;0.50;;
6551;SDS011;3309;48.708;9.290;2022-07-03T11:25:49;0.40;;;0.40;;
6551;SDS011;3309;48.708;9.290;2022-07-03T11:39:24;0.30;;;0.30;;
6551;SDS011;3309;48.708;9.290;2022-07-03T11:44:02;0.50;;;0.50;;
6551;SDS011;3309;48.708;9.290;2022-07-03T11:46:34;0.60;;;0.60;;
6551;SDS011;3309;48.708;9.290;2022-07-03T11:51:29;0.50;;;0.50;;
6551;SDS011;3309;48.708;9.290;2022-07-03T11:53:54;0.50;;;0.50;;
6551;SDS011;3309;48.708;9.290;2022-07-03T11:56:20;0.70;;;0.70;;
6551;SDS011;3309;48.708;9.290;2022-07-03T11:58:52;0.50;;;0.50;;
6551;SDS011;3309;48.708;9.290;2022-07-03T12:03:51;0.60;;;0.60;;
6551;SDS011;3309;48.708;9.290;2022-07-03T12:06:18;0.43;;;0.43;;
6551;SDS011;3309;48.708;9.290;2022-07-03T12:08:45;0.60;;;0.60;;
6551;SDS011;3309;48.708;9.290;2022-07-03T12:11:12;0.50;;;0.50;;
6551;SDS011;3309;48.708;9.290;2022-07-03T12:13:39;0.53;;;0.53;;
6551;SDS011;3309;48.708;9.290;2022-07-03T12:16:21;0.50;;;0.50;;
6551;SDS011;3309;48.708;9.290;2022-07-03T12:19:00;0.43;;;0.43;;
6551;SDS011;3309;48.708;9.290;2022-07-03T12:21:38;0.50;;;0.50;;
6551;SDS011;3309;48.708;9.290;2022-07-03T12:24:11;0.60;;;0.60;;
6551;SDS011;3309;48.708;9.290;2022-07-03T12:26:38;0.60;;;0.60;;
6551;SDS011;3309;48.708;9.290;2022-07-03T12:29:08;0.43;;;0.43;;
6551;SDS011;3309;48.708;9.290;2022-07-03T12:31:34;0.53;;;0.53;;
6551;SDS011;3309;48.708;9.290;2022-07-03T12:34:03;0.40;;;0.40;;
6551;SDS011;3309;48.708;9.290;2022-07-03T12:36:29;0.57;;;0.57;;
6551;SDS011;3309;48.708;9.290;2022-07-03T12:38:55;0.53;;;0.53;;
6551;SDS011;3309;48.708;9.290;2022-07-03T12:41:22;0.60;;;0.60;;
6551;SDS011;3309;48.708;9.290;2022-07-03T12:43:49;0.50;;;0.50;;
6551;SDS011;3309;48.708;9.290;2022-07-03T12:48:55;0.60;;;0.60;;
6551;SDS011;3309;48.708;9.290;2022-07-03T12:54:13;0.60;;;0.60;;
6551;SDS011;3309;48.708;9.290;2022-07-03T12:57:08;0.60;;;0.60;;
6551;SDS011;3309;48.708;9.290;2022-07-03T13:00:00;0.50;;;0.50;;
6551;SDS011;3309;48.708;9.290;2022-07-03T13:02:26;0.50;;;0.50;;
6551;SDS011;3309;48.708;9.290;2022-07-03T13:04:52;0.50;;;0.50;;
6551;SDS011;3309;48.708;9.290;2022-07-03T13:07:18;0.53;;;0.53;;
6551;SDS011;3309;48.708;9.290;2022-07-03T13:09:43;0.60;;;0.60;;
6551;SDS011;3309;48.708;9.290;2022-07-03T13:12:21;0.40;;;0.40;;
6551;SDS011;3309;48.708;9.290;2022-07-03T13:15:00;0.50;;;0.50;;
6551;SDS011;3309;48.708;9.290;2022-07-03T13:17:49;0.40;;;0.40;;
6551;SDS011;3309;48.708;9.290;2022-07-03T13:20:22;0.50;;;0.50;;
6551;SDS011;3309;48.708;9.290;2022-07-03T13:22:48;0.60;;;0.60;;
6551;SDS011;3309;48.708;9.290;2022-07-03T13:25:15;0.50;;;0.50;;
6551;SDS011;3309;48.708;9.290;2022-07-03T13:27:40;0.50;;;0.50;;
6551;SDS011;3309;48.708;9.290;2022-07-03T13:30:07;0.47;;;0.47;;
6551;SDS011;3309;48.708;9.290;2022-07-03T13:32:34;0.50;;;0.50;;
6551;SDS011;3309;48.708;9.290;2022-07-03T13:34:59;0.50;;;0.50;;
6551;SDS011;3309;48.708;9.290;2022-07-03T13:37:25;0.50;;;0.50;;
6551;SDS011;3309;48.708;9.290;2022-07-03T13:39:50;0.63;;;0.63;;
6551;SDS011;3309;48.708;9.290;2022-07-03T13:42:16;0.45;;;0.45;;
6551;SDS011;3309;48.708;9.290;2022-07-03T13:44:42;0.50;;;0.50;;
6551;SDS011;3309;48.708;9.290;2022-07-03T13:47:07;0.60;;;0.60;;
6551;SDS011;3309;48.708;9.290;2022-07-03T13:49:33;0.60;;;0.60;;
6551;SDS011;3309;48.708;9.290;2022-07-03T13:51:59;0.60;;;0.60;;
6551;SDS011;3309;48.708;9.290;2022-07-03T13:54:24;0.60;;;0.60;;
6551;SDS011;3309;48.708;9.290;2022-07-03T13:56:50;0.60;;;0.60;;
6551;SDS011;3309;48.708;9.290;2022-07-03T13:59:16;0.50;;;0.50;;
6551;SDS011;3309;48.708;9.290;2022-07-03T14:01:42;0.50;;;0.50;;
6551;SDS011;3309;48.708;9.290;2022-07-03T14:04:08;0.47;;;0.47;;
6551;SDS011;3309;48.708;9.290;2022-07-03T14:06:34;0.60;;;0.60;;
6551;SDS011;3309;48.708;9.290;2022-07-03T14:09:00;0.70;;;0.70;;
6551;SDS011;3309;48.708;9.290;2022-07-03T14:11:26;0.60;;;0.60;;
6551;SDS011;3309;48.708;9.290;2022-07-03T14:13:52;0.50;;;0.50;;
6551;SDS011;3309;48.708;9.290;2022-07-03T14:16:17;0.50;;;0.50;;
6551;SDS011;3309;48.708;9.290;2022-07-03T14:18:43;0.50;;;0.50;;
6551;SDS011;3309;48.708;9.290;2022-07-03T14:21:08;0.50;;;0.50;;
6551;SDS011;3309;48.708;9.290;2022-07-03T14:23:34;0.60;;;0.60;;
6551;SDS011;3309;48.708;9.290;2022-07-03T14:26:00;0.50;;;0.50;;
6551;SDS011;3309;48.708;9.290;2022-07-03T14:28:25;0.47;;;0.47;;
6551;SDS011;3309;48.708;9.290;2022-07-03T14:31:10;0.60;;;0.60;;
6551;SDS011;3309;48.708;9.290;2022-07-03T14:33:44;0.47;;;0.47;;
6551;SDS011;3309;48.708;9.290;2022-07-03T14:36:10;0.53;;;0.53;;
6551;SDS011;3309;48.708;9.290;2022-07-03T14:38:35;0.47;;;0.47;;
6551;SDS011;3309;48.708;9.290;2022-07-03T14:41:01;0.50;;;0.50;;
6551;SDS011;3309;48.708;9.290;2022-07-03T14:43:27;0.47;;;0.47;;
6551;SDS011;3309;48.708;9.290;2022-07-03T14:45:52;0.50;;;0.50;;
6551;SDS011;3309;48.708;9.290;2022-07-03T14:48:18;0.50;;;0.50;;
6551;SDS011;3309;48.708;9.290;2022-07-03T14:50:45;0.60;;;0.60;;
6551;SDS011;3309;48.708;9.290;2022-07-03T14:53:11;0.60;;;0.60;;
6551;SDS011;3309;48.708;9.290;2022-07-03T14:55:37;0.57;;;0.57;;
6551;SDS011;3309;48.708;9.290;2022-07-03T14:58:07;0.50;;;0.50;;
6551;SDS011;3309;48.708;9.290;2022-07-03T15:00:38;0.60;;;0.60;;
6551;SDS011;3309;48.708;9.290;2022-07-03T15:03:08;0.50;;;0.50;;
6551;SDS011;3309;48.708;9.290;2022-07-03T15:05:54;0.50;;;0.50;;
6551;SDS011;3309;48.708;9.290;2022-07-03T15:10:56;0.50;;;0.50;;
6551;SDS011;3309;48.708;9.290;2022-07-03T15:13:33;0.60;;;0.60;;
6551;SDS011;3309;48.708;9.290;2022-07-03T15:15:59;0.50;;;0.50;;
6551;SDS011;3309;48.708;9.290;2022-07-03T15:18:25;0.60;;;0.60;;
6551;SDS011;3309;48.708;9.290;2022-07-03T15:20:53;0.60;;;0.60;;
6551;SDS011;3309;48.708;9.290;2022-07-03T15:23:20;0.60;;;0.60;;
6551;SDS011;3309;48.708;9.290;2022-07-03T15:25:46;0.57;;;0.57;;
6551;SDS011;3309;48.708;9.290;2022-07-03T15:28:13;0.60;;;0.60;;
6551;SDS011;3309;48.708;9.290;2022-07-03T15:30:52;0.60;;;0.60;;
6551;SDS011;3309;48.708;9.290;2022-07-03T15:33:19;0.70;;;0.70;;
6551;SDS011;3309;48.708;9.290;2022-07-03T15:35:48;0.60;;;0.60;;
6551;SDS011;3309;48.708;9.290;2022-07-03T15:38:17;0.63;;;0.63;;
6551;SDS011;3309;48.708;9.290;2022-07-03T15:40:53;0.67;;;0.67;;
6551;SDS011;3309;48.708;9.290;2022-07-03T15:43:35;0.60;;;0.60;;
6551;SDS011;3309;48.708;9.290;2022-07-03T15:52:38;0.60;;;0.60;;
6551;SDS011;3309;48.708;9.290;2022-07-03T15:57:11;0.60;;;0.60;;
6551;SDS011;3309;48.708;9.290;2022-07-03T15:59:45;0.50;;;0.50;;
6551;SDS011;3309;48.708;9.290;2022-07-03T16:02:17;0.60;;;0.60;;
6551;SDS011;3309;48.708;9.290;2022-07-03T16:05:08;0.60;;;0.60;;
6551;SDS011;3309;48.708;9.290;2022-07-03T16:07:37;0.60;;;0.60;;
6551;SDS011;3309;48.708;9.290;2022-07-03T16:10:05;0.60;;;0.60;;
6551;SDS011;3309;48.708;9.290;2022-07-03T16:12:32;0.50;;;0.50;;
6551;SDS011;3309;48.708;9.290;2022-07-03T16:14:58;0.57;;;0.57;;
6551;SDS011;3309;48.708;9.290;2022-07-03T16:17:25;0.57;;;0.57;;
6551;SDS011;3309;48.708;9.290;2022-07-03T16:19:51;0.63;;;0.63;;
6551;SDS011;3309;48.708;9.290;2022-07-03T16:22:17;0.70;;;0.70;;
6551;SDS011;3309;48.708;9.290;2022-07-03T16:24:44;0.50;;;0.50;;
6551;SDS011;3309;48.708;9.290;2022-07-03T16:27:12;0.47;;;0.47;;
6551;SDS011;3309;48.708;9.290;2022-07-03T16:29:39;0.50;;;0.50;;
6551;SDS011;3309;48.708;9.290;2022-07-03T16:32:06;0.60;;;0.60;;
6551;SDS011;3309;48.708;9.290;2022-07-03T16:34:45;0.33;;;0.33;;
6551;SDS011;3309;48.708;9.290;2022-07-03T16:40:02;0.40;;;0.40;;
6551;SDS011;3309;48.708;9.290;2022-07-03T16:42:30;0.40;;;0.40;;
6551;SDS011;3309;48.708;9.290;2022-07-03T16:45:02;0.50;;;0.50;;
6551;SDS011;3309;48.708;9.290;2022-07-03T16:47:34;0.40;;;0.40;;
6551;SDS011;3309;48.708;9.290;2022-07-03T16:50:10;0.40;;;0.40;;
6551;SDS011;3309;48.708;9.290;2022-07-03T16:52:40;0.43;;;0.43;;
6551;SDS011;3309;48.708;9.290;2022-07-03T16:55:07;0.50;;;0.50;;
6551;SDS011;3309;48.708;9.290;2022-07-03T16:57:35;0.30;;;0.30;;